sensor_id;sensor_type;location;lat;lon;timestamp;pressure;altitude;pressure_sealevel;temperature;humidity
59158;BME280;44940;55.060;73.168;2022-09-12T00:02:07;100569.28;;;2.84;100.00
59158;BME280;44940;55.060;73.168;2022-09-12T00:04:36;100570.09;;;2.84;100.00
59158;BME280;44940;55.060;73.168;2022-09-12T00:07:03;100579.72;;;2.82;100.00
59158;BME280;44940;55.060;73.168;2022-09-12T00:09:30;100582.25;;;2.78;100.00
59158;BME280;44940;55.060;73.168;2022-09-12T00:11:58;100586.09;;;2.77;100.00
59158;BME280;44940;55.060;73.168;2022-09-12T00:14:25;100602.50;;;2.77;100.00
59158;BME280;44940;55.060;73.168;2022-09-12T00:16:52;100604.63;;;2.80;100.00
59158;BME280;44940;55.060;73.168;2022-09-12T00:19:22;100607.75;;;2.73;100.00
59158;BME280;44940;55.060;73.168;2022-09-12T00:21:51;100613.22;;;2.73;100.00
59158;BME280;44940;55.060;73.168;2022-09-12T00:24:18;100617.94;;;2.68;100.00
59158;BME280;44940;55.060;73.168;2022-09-12T00:26:45;100616.81;;;2.69;100.00
59158;BME280;44940;55.060;73.168;2022-09-12T00:29:15;100624.16;;;2.73;100.00
59158;BME280;44940;55.060;73.168;2022-09-12T00:31:42;100633.47;;;2.72;100.00
59158;BME280;44940;55.060;73.168;2022-09-12T00:34:10;100627.75;;;2.69;100.00
59158;BME280;44940;55.060;73.168;2022-09-12T00:36:38;100638.13;;;2.72;100.00
59158;BME280;44940;55.060;73.168;2022-09-12T00:39:06;100645.81;;;2.70;100.00
59158;BME280;44940;55.060;73.168;2022-09-12T00:41:36;100661.16;;;2.66;100.00
59158;BME280;44940;55.060;73.168;2022-09-12T00:44:41;100665.47;;;2.72;100.00
59158;BME280;44940;55.060;73.168;2022-09-12T00:47:13;100665.78;;;2.70;100.00
59158;BME280;44940;55.060;73.168;2022-09-12T00:49:46;100665.81;;;2.65;100.00
59158;BME280;44940;55.060;73.168;2022-09-12T00:52:16;100675.94;;;2.65;100.00
59158;BME280;44940;55.060;73.168;2022-09-12T00:54:50;100677.13;;;2.59;100.00
59158;BME280;44940;55.060;73.168;2022-09-12T00:57:20;100684.44;;;2.63;100.00
59158;BME280;44940;55.060;73.168;2022-09-12T00:59:52;100688.81;;;2.64;100.00
59158;BME280;44940;55.060;73.168;2022-09-12T01:02:21;100688.50;;;2.66;100.00
59158;BME280;44940;55.060;73.168;2022-09-12T01:04:48;100706.00;;;2.70;100.00
59158;BME280;44940;55.060;73.168;2022-09-12T01:07:15;100703.78;;;2.72;100.00
59158;BME280;44940;55.060;73.168;2022-09-12T01:09:43;100704.91;;;2.66;100.00
59158;BME280;44940;55.060;73.168;2022-09-12T01:12:13;100717.97;;;2.74;100.00
59158;BME280;44940;55.060;73.168;2022-09-12T01:14:41;100718.56;;;2.71;100.00
59158;BME280;44940;55.060;73.168;2022-09-12T01:17:11;100725.75;;;2.86;100.00
59158;BME280;44940;55.060;73.168;2022-09-12T01:20:13;100735.28;;;2.88;100.00
59158;BME280;44940;55.060;73.168;2022-09-12T01:23:05;100741.66;;;3.02;100.00
59158;BME280;44940;55.060;73.168;2022-09-12T01:25:48;100744.94;;;3.04;100.00
59158;BME280;44940;55.060;73.168;2022-09-12T01:28:44;100751.00;;;3.01;100.00
59158;BME280;44940;55.060;73.168;2022-09-12T01:31:23;100734.13;;;2.94;100.00
59158;BME280;44940;55.060;73.168;2022-09-12T01:34:07;100764.25;;;3.13;100.00
59158;BME280;44940;55.060;73.168;2022-09-12T01:36:41;100757.38;;;3.16;100.00
59158;BME280;44940;55.060;73.168;2022-09-12T01:39:19;100763.28;;;3.23;100.00
59158;BME280;44940;55.060;73.168;2022-09-12T01:41:54;100763.75;;;3.30;100.00
59158;BME280;44940;55.060;73.168;2022-09-12T01:44:33;100768.25;;;3.21;100.00
59158;BME280;44940;55.060;73.168;2022-09-12T01:47:05;100764.47;;;3.17;100.00
59158;BME280;44940;55.060;73.168;2022-09-12T01:49:40;100777.47;;;3.30;100.00
59158;BME280;44940;55.060;73.168;2022-09-12T01:52:12;100787.13;;;3.41;100.00
59158;BME280;44940;55.060;73.168;2022-09-12T01:54:45;100786.56;;;3.44;100.00
59158;BME280;44940;55.060;73.168;2022-09-12T01:57:18;100770.13;;;3.44;100.00
59158;BME280;44940;55.060;73.168;2022-09-12T01:59:48;100770.81;;;3.55;100.00
59158;BME280;44940;55.060;73.168;2022-09-12T02:02:22;100800.13;;;3.73;100.00
59158;BME280;44940;55.060;73.168;2022-09-12T02:04:57;100805.91;;;3.72;100.00
59158;BME280;44940;55.060;73.168;2022-09-12T02:07:27;100806.84;;;3.81;100.00
59158;BME280;44940;55.060;73.168;2022-09-12T02:10:03;100809.22;;;3.87;100.00
59158;BME280;44940;55.060;73.168;2022-09-12T02:12:38;100813.72;;;3.97;100.00
59158;BME280;44940;55.060;73.168;2022-09-12T02:15:08;100814.38;;;4.08;100.00
59158;BME280;44940;55.060;73.168;2022-09-12T02:17:41;100819.78;;;4.13;100.00
59158;BME280;44940;55.060;73.168;2022-09-12T02:20:14;100810.66;;;4.17;100.00
59158;BME280;44940;55.060;73.168;2022-09-12T02:22:44;100829.19;;;4.25;100.00
59158;BME280;44940;55.060;73.168;2022-09-12T02:25:15;100828.47;;;4.34;100.00
59158;BME280;44940;55.060;73.168;2022-09-12T02:27:45;100826.66;;;4.29;100.00
59158;BME280;44940;55.060;73.168;2022-09-12T02:30:15;100832.50;;;4.55;100.00
59158;BME280;44940;55.060;73.168;2022-09-12T02:32:56;100835.50;;;4.86;100.00
59158;BME280;44940;55.060;73.168;2022-09-12T02:35:32;100841.31;;;4.98;100.00
59158;BME280;44940;55.060;73.168;2022-09-12T02:38:07;100845.91;;;5.03;100.00
59158;BME280;44940;55.060;73.168;2022-09-12T02:40:35;100837.66;;;5.03;100.00
59158;BME280;44940;55.060;73.168;2022-09-12T02:43:04;100851.88;;;5.32;100.00
59158;BME280;44940;55.060;73.168;2022-09-12T02:45:32;100858.94;;;5.88;100.00
59158;BME280;44940;55.060;73.168;2022-09-12T02:48:06;100857.59;;;6.58;99.34
59158;BME280;44940;55.060;73.168;2022-09-12T02:50:35;100859.16;;;7.60;97.16
59158;BME280;44940;55.060;73.168;2022-09-12T02:53:03;100852.41;;;8.36;94.75
59158;BME280;44940;55.060;73.168;2022-09-12T02:55:34;100864.19;;;8.88;91.25
59158;BME280;44940;55.060;73.168;2022-09-12T02:58:02;100865.22;;;9.51;88.92
59158;BME280;44940;55.060;73.168;2022-09-12T03:00:35;100872.56;;;10.18;85.72
59158;BME280;44940;55.060;73.168;2022-09-12T03:05:58;100860.69;;;11.05;82.13
59158;BME280;44940;55.060;73.168;2022-09-12T03:08:49;100879.16;;;11.13;77.72
59158;BME280;44940;55.060;73.168;2022-09-12T03:11:41;100879.66;;;11.51;73.83
59158;BME280;44940;55.060;73.168;2022-09-12T03:14:25;100888.00;;;11.88;74.94
59158;BME280;44940;55.060;73.168;2022-09-12T03:17:01;100881.41;;;12.33;72.79
59158;BME280;44940;55.060;73.168;2022-09-12T03:19:43;100894.22;;;12.77;70.78
59158;BME280;44940;55.060;73.168;2022-09-12T03:22:14;100896.91;;;12.74;71.28
59158;BME280;44940;55.060;73.168;2022-09-12T03:24:48;100897.56;;;12.99;69.90
59158;BME280;44940;55.060;73.168;2022-09-12T03:27:23;100908.88;;;13.06;69.93
59158;BME280;44940;55.060;73.168;2022-09-12T03:29:53;100917.09;;;13.46;67.13
59158;BME280;44940;55.060;73.168;2022-09-12T03:32:39;100917.91;;;13.47;63.52
59158;BME280;44940;55.060;73.168;2022-09-12T03:35:07;100922.06;;;13.53;61.99
59158;BME280;44940;55.060;73.168;2022-09-12T03:37:35;100925.09;;;13.79;60.84
59158;BME280;44940;55.060;73.168;2022-09-12T03:40:03;100929.38;;;14.08;57.83
59158;BME280;44940;55.060;73.168;2022-09-12T03:42:30;100920.22;;;14.27;57.45
59158;BME280;44940;55.060;73.168;2022-09-12T03:44:57;100931.28;;;14.23;56.78
59158;BME280;44940;55.060;73.168;2022-09-12T03:47:24;100942.72;;;14.53;56.10
59158;BME280;44940;55.060;73.168;2022-09-12T03:49:52;100942.72;;;-144.94;56.10
59158;BME280;44940;55.060;73.168;2022-09-12T03:52:20;100946.34;;;15.15;53.20
59158;BME280;44940;55.060;73.168;2022-09-12T03:54:48;100946.34;;;15.15;53.20
59158;BME280;44940;55.060;73.168;2022-09-12T03:57:15;100942.69;;;15.11;52.28
59158;BME280;44940;55.060;73.168;2022-09-12T03:59:42;100946.06;;;15.01;53.04
59158;BME280;44940;55.060;73.168;2022-09-12T04:02:10;100946.41;;;15.19;53.78
59158;BME280;44940;55.060;73.168;2022-09-12T04:04:39;100947.06;;;14.90;53.31
59158;BME280;44940;55.060;73.168;2022-09-12T04:07:08;100951.53;;;14.94;54.15
59158;BME280;44940;55.060;73.168;2022-09-12T04:09:37;100956.06;;;14.83;50.81
59158;BME280;44940;55.060;73.168;2022-09-12T04:12:05;71117.31;;;-144.94;100.00
59158;BME280;44940;55.060;73.168;2022-09-12T04:14:32;71117.31;;;-144.94;100.00
59158;BME280;44940;55.060;73.168;2022-09-12T04:17:00;100965.66;;;15.24;47.44
59158;BME280;44940;55.060;73.168;2022-09-12T04:19:27;100964.97;;;15.31;47.69
59158;BME280;44940;55.060;73.168;2022-09-12T04:21:54;100959.75;;;15.06;48.89
59158;BME280;44940;55.060;73.168;2022-09-12T04:24:21;100969.25;;;15.25;47.03
59158;BME280;44940;55.060;73.168;2022-09-12T04:26:50;100974.25;;;15.15;47.35
59158;BME280;44940;55.060;73.168;2022-09-12T04:29:17;100977.31;;;15.30;46.69
59158;BME280;44940;55.060;73.168;2022-09-12T04:31:44;100985.13;;;15.01;46.15
59158;BME280;44940;55.060;73.168;2022-09-12T04:34:11;100987.78;;;15.13;47.07
59158;BME280;44940;55.060;73.168;2022-09-12T04:36:38;71117.31;;;-144.94;100.00
59158;BME280;44940;55.060;73.168;2022-09-12T04:39:06;71117.31;;;-144.94;100.00
59158;BME280;44940;55.060;73.168;2022-09-12T04:41:35;71117.31;;;-144.94;100.00
59158;BME280;44940;55.060;73.168;2022-09-12T04:44:05;71117.31;;;-144.94;100.00
59158;BME280;44940;55.060;73.168;2022-09-12T04:46:35;71117.31;;;-144.94;100.00
59158;BME280;44940;55.060;73.168;2022-09-12T04:49:02;71117.31;;;-144.94;100.00
59158;BME280;44940;55.060;73.168;2022-09-12T04:51:31;100987.78;;;15.13;47.07
59158;BME280;44940;55.060;73.168;2022-09-12T04:54:01;71117.31;;;-144.94;100.00
59158;BME280;44940;55.060;73.168;2022-09-12T04:56:29;101007.13;;;14.48;44.95
59158;BME280;44940;55.060;73.168;2022-09-12T04:58:57;101003.25;;;14.37;44.50
59158;BME280;44940;55.060;73.168;2022-09-12T05:01:27;101015.78;;;14.12;48.03
59158;BME280;44940;55.060;73.168;2022-09-12T05:03:56;101019.41;;;13.96;50.13
59158;BME280;44940;55.060;73.168;2022-09-12T05:06:25;101019.19;;;14.05;49.37
59158;BME280;44940;55.060;73.168;2022-09-12T05:08:53;101033.66;;;13.79;50.14
59158;BME280;44940;55.060;73.168;2022-09-12T05:11:23;101028.09;;;13.63;49.64
59158;BME280;44940;55.060;73.168;2022-09-12T05:13:50;101031.84;;;13.55;50.22
59158;BME280;44940;55.060;73.168;2022-09-12T05:16:18;101028.69;;;13.13;52.66
59158;BME280;44940;55.060;73.168;2022-09-12T05:18:47;101041.84;;;13.28;51.33
59158;BME280;44940;55.060;73.168;2022-09-12T05:21:17;101049.53;;;13.07;52.17
59158;BME280;44940;55.060;73.168;2022-09-12T05:23:45;101046.50;;;12.84;53.38
59158;BME280;44940;55.060;73.168;2022-09-12T05:26:15;101035.28;;;12.81;51.67
59158;BME280;44940;55.060;73.168;2022-09-12T05:28:42;101035.91;;;13.02;53.05
59158;BME280;44940;55.060;73.168;2022-09-12T05:31:11;101056.28;;;13.06;50.83
59158;BME280;44940;55.060;73.168;2022-09-12T05:33:41;101053.38;;;13.02;49.78
59158;BME280;44940;55.060;73.168;2022-09-12T05:36:13;101053.41;;;12.90;48.04
59158;BME280;44940;55.060;73.168;2022-09-12T05:38:40;101068.53;;;12.53;49.68
59158;BME280;44940;55.060;73.168;2022-09-12T05:41:08;101068.19;;;12.66;49.03
59158;BME280;44940;55.060;73.168;2022-09-12T05:43:37;101063.53;;;12.70;48.81
59158;BME280;44940;55.060;73.168;2022-09-12T05:46:06;101059.88;;;12.54;48.78
59158;BME280;44940;55.060;73.168;2022-09-12T05:48:37;101064.94;;;12.64;50.20
59158;BME280;44940;55.060;73.168;2022-09-12T05:51:05;101052.31;;;12.67;50.08
59158;BME280;44940;55.060;73.168;2022-09-12T05:53:37;101062.41;;;12.59;50.23
59158;BME280;44940;55.060;73.168;2022-09-12T05:56:06;101068.88;;;12.75;48.45
59158;BME280;44940;55.060;73.168;2022-09-12T05:58:34;101060.94;;;12.90;48.39
59158;BME280;44940;55.060;73.168;2022-09-12T06:01:03;101066.22;;;13.07;50.22
59158;BME280;44940;55.060;73.168;2022-09-12T06:03:33;101064.34;;;13.23;49.74
59158;BME280;44940;55.060;73.168;2022-09-12T06:06:02;101066.19;;;13.31;48.93
59158;BME280;44940;55.060;73.168;2022-09-12T06:08:30;101063.25;;;13.40;46.67
59158;BME280;44940;55.060;73.168;2022-09-12T06:11:00;101065.53;;;13.10;47.79
59158;BME280;44940;55.060;73.168;2022-09-12T06:13:30;101080.81;;;13.16;48.10
59158;BME280;44940;55.060;73.168;2022-09-12T06:16:02;101082.47;;;13.05;46.50
59158;BME280;44940;55.060;73.168;2022-09-12T06:18:29;101079.25;;;12.91;47.62
59158;BME280;44940;55.060;73.168;2022-09-12T06:20:56;101077.16;;;13.00;47.71
59158;BME280;44940;55.060;73.168;2022-09-12T06:23:24;101066.69;;;13.09;47.84
59158;BME280;44940;55.060;73.168;2022-09-12T06:25:52;101085.19;;;13.29;46.80
59158;BME280;44940;55.060;73.168;2022-09-12T06:28:21;101086.34;;;13.28;46.95
59158;BME280;44940;55.060;73.168;2022-09-12T06:30:48;101085.50;;;13.40;47.76
59158;BME280;44940;55.060;73.168;2022-09-12T06:33:15;101073.25;;;13.57;47.56
59158;BME280;44940;55.060;73.168;2022-09-12T06:35:42;101063.25;;;13.40;46.79
59158;BME280;44940;55.060;73.168;2022-09-12T06:38:10;101077.59;;;13.42;45.53
59158;BME280;44940;55.060;73.168;2022-09-12T06:40:40;101082.13;;;13.62;44.79
59158;BME280;44940;55.060;73.168;2022-09-12T06:43:10;101086.63;;;13.51;45.05
59158;BME280;44940;55.060;73.168;2022-09-12T06:45:46;101085.81;;;13.51;45.11
59158;BME280;44940;55.060;73.168;2022-09-12T06:48:13;101089.75;;;13.50;45.85
59158;BME280;44940;55.060;73.168;2022-09-12T06:50:41;101092.38;;;13.58;45.24
59158;BME280;44940;55.060;73.168;2022-09-12T06:53:08;101089.22;;;13.60;46.33
59158;BME280;44940;55.060;73.168;2022-09-12T06:55:35;101086.34;;;13.56;45.27
59158;BME280;44940;55.060;73.168;2022-09-12T06:58:02;101097.09;;;13.70;46.23
59158;BME280;44940;55.060;73.168;2022-09-12T07:00:31;101093.59;;;13.89;45.17
59158;BME280;44940;55.060;73.168;2022-09-12T07:03:00;101095.09;;;13.86;44.34
59158;BME280;44940;55.060;73.168;2022-09-12T07:05:27;101106.09;;;13.95;44.45
59158;BME280;44940;55.060;73.168;2022-09-12T07:07:54;101107.00;;;14.15;44.81
59158;BME280;44940;55.060;73.168;2022-09-12T07:10:21;101113.19;;;14.24;44.10
59158;BME280;44940;55.060;73.168;2022-09-12T07:12:48;101106.81;;;14.23;44.05
59158;BME280;44940;55.060;73.168;2022-09-12T07:15:16;101110.50;;;14.12;44.09
59158;BME280;44940;55.060;73.168;2022-09-12T07:17:43;101111.31;;;14.12;44.46
59158;BME280;44940;55.060;73.168;2022-09-12T07:20:12;101113.09;;;13.89;44.25
59158;BME280;44940;55.060;73.168;2022-09-12T07:22:39;101116.09;;;14.12;45.43
59158;BME280;44940;55.060;73.168;2022-09-12T07:25:07;101117.16;;;14.23;44.01
59158;BME280;44940;55.060;73.168;2022-09-12T07:27:34;101124.09;;;14.29;44.87
59158;BME280;44940;55.060;73.168;2022-09-12T07:30:04;101125.63;;;14.11;43.53
59158;BME280;44940;55.060;73.168;2022-09-12T07:32:33;101118.31;;;14.22;43.85
59158;BME280;44940;55.060;73.168;2022-09-12T07:35:00;101137.03;;;14.37;44.71
59158;BME280;44940;55.060;73.168;2022-09-12T07:37:30;101133.94;;;14.42;42.65
59158;BME280;44940;55.060;73.168;2022-09-12T07:39:57;101137.47;;;14.39;42.28
59158;BME280;44940;55.060;73.168;2022-09-12T07:42:25;101143.59;;;14.29;41.38
59158;BME280;44940;55.060;73.168;2022-09-12T07:44:52;101126.34;;;14.08;41.81
59158;BME280;44940;55.060;73.168;2022-09-12T07:47:20;101136.38;;;14.12;45.06
59158;BME280;44940;55.060;73.168;2022-09-12T07:49:47;101144.75;;;14.28;45.67
59158;BME280;44940;55.060;73.168;2022-09-12T07:52:14;101139.53;;;14.26;44.66
59158;BME280;44940;55.060;73.168;2022-09-12T07:54:42;101141.25;;;14.31;45.06
59158;BME280;44940;55.060;73.168;2022-09-12T07:57:10;101145.81;;;14.39;43.21
59158;BME280;44940;55.060;73.168;2022-09-12T07:59:37;101143.06;;;14.71;43.40
59158;BME280;44940;55.060;73.168;2022-09-12T08:02:11;101125.31;;;14.63;41.15
59158;BME280;44940;55.060;73.168;2022-09-12T08:04:39;101146.13;;;14.66;42.19
59158;BME280;44940;55.060;73.168;2022-09-12T08:07:08;101154.28;;;14.43;41.37
59158;BME280;44940;55.060;73.168;2022-09-12T08:09:35;101158.16;;;14.38;41.80
59158;BME280;44940;55.060;73.168;2022-09-12T08:12:04;101150.06;;;14.33;43.29
59158;BME280;44940;55.060;73.168;2022-09-12T08:14:32;101164.88;;;14.37;42.11
59158;BME280;44940;55.060;73.168;2022-09-12T08:16:59;101159.72;;;14.51;42.91
59158;BME280;44940;55.060;73.168;2022-09-12T08:19:26;101159.34;;;14.53;42.56
59158;BME280;44940;55.060;73.168;2022-09-12T08:21:53;101169.97;;;14.47;42.77
59158;BME280;44940;55.060;73.168;2022-09-12T08:24:20;101161.22;;;14.33;43.00
59158;BME280;44940;55.060;73.168;2022-09-12T08:26:47;101169.13;;;14.31;44.84
59158;BME280;44940;55.060;73.168;2022-09-12T08:29:16;101165.13;;;14.01;45.24
59158;BME280;44940;55.060;73.168;2022-09-12T08:31:43;101170.44;;;14.21;45.98
59158;BME280;44940;55.060;73.168;2022-09-12T08:34:12;101173.22;;;14.06;47.45
59158;BME280;44940;55.060;73.168;2022-09-12T08:36:39;101175.69;;;13.79;46.59
59158;BME280;44940;55.060;73.168;2022-09-12T08:39:06;101180.72;;;13.61;46.18
59158;BME280;44940;55.060;73.168;2022-09-12T08:41:37;101189.34;;;13.56;45.93
59158;BME280;44940;55.060;73.168;2022-09-12T08:44:27;101190.44;;;13.40;45.71
59158;BME280;44940;55.060;73.168;2022-09-12T08:47:08;101194.28;;;13.35;47.66
59158;BME280;44940;55.060;73.168;2022-09-12T08:49:39;101198.06;;;13.43;47.84
59158;BME280;44940;55.060;73.168;2022-09-12T08:52:13;101207.16;;;13.27;47.51
59158;BME280;44940;55.060;73.168;2022-09-12T08:54:42;101201.34;;;13.32;49.13
59158;BME280;44940;55.060;73.168;2022-09-12T08:57:13;101203.88;;;13.38;50.20
59158;BME280;44940;55.060;73.168;2022-09-12T08:59:43;101205.00;;;13.49;49.78
59158;BME280;44940;55.060;73.168;2022-09-12T09:02:25;101214.03;;;13.58;48.25
59158;BME280;44940;55.060;73.168;2022-09-12T09:04:57;101211.44;;;13.65;49.41
59158;BME280;44940;55.060;73.168;2022-09-12T09:07:48;101219.81;;;13.65;50.11
59158;BME280;44940;55.060;73.168;2022-09-12T09:10:25;101218.41;;;13.71;49.22
59158;BME280;44940;55.060;73.168;2022-09-12T09:12:59;101219.69;;;13.74;48.72
59158;BME280;44940;55.060;73.168;2022-09-12T09:15:42;101220.03;;;13.72;49.73
59158;BME280;44940;55.060;73.168;2022-09-12T09:18:18;101207.97;;;13.68;49.85
59158;BME280;44940;55.060;73.168;2022-09-12T09:20:51;101229.69;;;13.62;51.22
59158;BME280;44940;55.060;73.168;2022-09-12T09:23:22;101232.50;;;13.50;51.60
59158;BME280;44940;55.060;73.168;2022-09-12T09:25:55;101229.50;;;13.43;51.14
59158;BME280;44940;55.060;73.168;2022-09-12T09:28:27;101234.84;;;13.36;51.89
59158;BME280;44940;55.060;73.168;2022-09-12T09:30:59;101236.31;;;13.46;51.62
59158;BME280;44940;55.060;73.168;2022-09-12T09:33:32;101229.13;;;13.45;50.44
59158;BME280;44940;55.060;73.168;2022-09-12T09:36:06;101234.06;;;13.63;52.14
59158;BME280;44940;55.060;73.168;2022-09-12T09:38:46;101234.19;;;13.67;51.18
59158;BME280;44940;55.060;73.168;2022-09-12T09:41:25;101235.22;;;13.75;50.66
59158;BME280;44940;55.060;73.168;2022-09-12T09:43:59;101229.25;;;13.88;48.90
59158;BME280;44940;55.060;73.168;2022-09-12T09:46:28;101244.81;;;13.89;47.63
59158;BME280;44940;55.060;73.168;2022-09-12T09:48:56;101248.41;;;13.90;47.66
59158;BME280;44940;55.060;73.168;2022-09-12T09:51:27;101242.09;;;13.93;48.27
59158;BME280;44940;55.060;73.168;2022-09-12T09:54:02;101224.44;;;13.73;47.20
59158;BME280;44940;55.060;73.168;2022-09-12T09:56:33;101232.97;;;13.80;47.93
59158;BME280;44940;55.060;73.168;2022-09-12T09:59:12;101238.84;;;13.63;48.48
59158;BME280;44940;55.060;73.168;2022-09-12T10:01:47;101240.31;;;13.73;48.68
59158;BME280;44940;55.060;73.168;2022-09-12T10:04:20;101238.34;;;13.73;48.67
59158;BME280;44940;55.060;73.168;2022-09-12T10:06:49;101247.88;;;13.72;49.50
59158;BME280;44940;55.060;73.168;2022-09-12T10:09:19;101241.06;;;13.57;50.59
59158;BME280;44940;55.060;73.168;2022-09-12T10:11:50;101246.19;;;13.55;50.13
59158;BME280;44940;55.060;73.168;2022-09-12T10:14:31;101241.66;;;13.51;48.57
59158;BME280;44940;55.060;73.168;2022-09-12T10:17:08;101232.63;;;13.42;48.91
59158;BME280;44940;55.060;73.168;2022-09-12T10:19:48;101248.50;;;13.53;48.78
59158;BME280;44940;55.060;73.168;2022-09-12T10:22:17;101247.81;;;13.44;50.15
59158;BME280;44940;55.060;73.168;2022-09-12T10:24:48;101244.56;;;13.30;50.27
59158;BME280;44940;55.060;73.168;2022-09-12T10:27:18;101256.41;;;13.39;49.76
59158;BME280;44940;55.060;73.168;2022-09-12T10:29:48;101229.41;;;13.27;49.06
59158;BME280;44940;55.060;73.168;2022-09-12T10:32:28;101257.56;;;13.50;49.05
59158;BME280;44940;55.060;73.168;2022-09-12T10:34:59;101260.44;;;13.54;50.17
59158;BME280;44940;55.060;73.168;2022-09-12T10:37:33;101256.66;;;13.34;49.76
59158;BME280;44940;55.060;73.168;2022-09-12T10:40:02;101272.19;;;13.35;50.04
59158;BME280;44940;55.060;73.168;2022-09-12T10:42:48;101266.38;;;13.28;49.24
59158;BME280;44940;55.060;73.168;2022-09-12T10:45:22;101270.31;;;13.27;49.45
59158;BME280;44940;55.060;73.168;2022-09-12T10:47:52;101271.13;;;13.40;46.86
59158;BME280;44940;55.060;73.168;2022-09-12T10:50:26;101268.09;;;13.57;45.81
59158;BME280;44940;55.060;73.168;2022-09-12T10:52:54;101270.97;;;13.60;45.40
59158;BME280;44940;55.060;73.168;2022-09-12T10:55:29;101271.31;;;13.59;45.96
59158;BME280;44940;55.060;73.168;2022-09-12T10:58:27;101267.72;;;13.58;45.76
59158;BME280;44940;55.060;73.168;2022-09-12T11:01:06;101267.03;;;13.49;46.49
59158;BME280;44940;55.060;73.168;2022-09-12T11:03:53;101273.81;;;13.36;46.36
59158;BME280;44940;55.060;73.168;2022-09-12T11:06:34;101261.16;;;13.26;45.25
59158;BME280;44940;55.060;73.168;2022-09-12T11:09:10;101274.16;;;13.34;47.16
59158;BME280;44940;55.060;73.168;2022-09-12T11:11:45;101278.31;;;13.28;49.28
59158;BME280;44940;55.060;73.168;2022-09-12T11:14:26;101284.59;;;13.38;47.52
59158;BME280;44940;55.060;73.168;2022-09-12T11:16:59;101277.16;;;13.42;48.78
59158;BME280;44940;55.060;73.168;2022-09-12T11:22:51;101281.34;;;13.35;52.34
59158;BME280;44940;55.060;73.168;2022-09-12T11:25:27;101279.38;;;13.24;53.14
59158;BME280;44940;55.060;73.168;2022-09-12T11:31:23;101293.75;;;13.26;49.15
59158;BME280;44940;55.060;73.168;2022-09-12T11:33:59;101290.38;;;13.20;50.58
59158;BME280;44940;55.060;73.168;2022-09-12T11:36:35;101288.16;;;13.14;50.33
59158;BME280;44940;55.060;73.168;2022-09-12T11:39:12;101294.28;;;13.07;49.45
59158;BME280;44940;55.060;73.168;2022-09-12T11:41:41;101295.22;;;12.99;50.27
59158;BME280;44940;55.060;73.168;2022-09-12T11:44:17;101289.78;;;13.02;50.90
59158;BME280;44940;55.060;73.168;2022-09-12T11:46:47;101295.91;;;13.08;49.60
59158;BME280;44940;55.060;73.168;2022-09-12T11:49:23;101293.38;;;13.03;48.40
59158;BME280;44940;55.060;73.168;2022-09-12T11:51:55;101299.16;;;12.86;53.67
59158;BME280;44940;55.060;73.168;2022-09-12T11:54:28;101302.81;;;12.65;56.90
59158;BME280;44940;55.060;73.168;2022-09-12T11:57:04;101298.66;;;12.59;50.73
59158;BME280;44940;55.060;73.168;2022-09-12T11:59:41;101294.66;;;12.48;47.01
59158;BME280;44940;55.060;73.168;2022-09-12T12:02:12;101315.66;;;12.58;49.30
59158;BME280;44940;55.060;73.168;2022-09-12T12:04:47;101324.34;;;12.56;48.96
59158;BME280;44940;55.060;73.168;2022-09-12T12:07:20;101318.53;;;12.49;48.90
59158;BME280;44940;55.060;73.168;2022-09-12T12:09:50;101322.44;;;12.36;49.51
59158;BME280;44940;55.060;73.168;2022-09-12T12:12:21;101336.03;;;12.29;50.91
59158;BME280;44940;55.060;73.168;2022-09-12T12:14:51;101327.00;;;12.20;50.69
59158;BME280;44940;55.060;73.168;2022-09-12T12:17:20;101330.16;;;12.09;52.39
59158;BME280;44940;55.060;73.168;2022-09-12T12:19:57;101330.78;;;11.94;52.89
59158;BME280;44940;55.060;73.168;2022-09-12T12:22:25;101315.88;;;11.78;53.13
59158;BME280;44940;55.060;73.168;2022-09-12T12:25:06;101315.25;;;11.72;54.86
59158;BME280;44940;55.060;73.168;2022-09-12T12:27:58;101337.31;;;11.69;55.30
59158;BME280;44940;55.060;73.168;2022-09-12T12:30:58;101340.75;;;11.66;55.25
59158;BME280;44940;55.060;73.168;2022-09-12T12:36:41;101346.78;;;11.68;56.67
59158;BME280;44940;55.060;73.168;2022-09-12T12:48:48;101354.69;;;11.57;56.32
59158;BME280;44940;55.060;73.168;2022-09-12T12:51:37;101352.78;;;11.49;56.09
59158;BME280;44940;55.060;73.168;2022-09-12T13:00:30;101365.81;;;11.19;58.36
59158;BME280;44940;55.060;73.168;2022-09-12T13:03:08;101370.56;;;11.10;58.46
59158;BME280;44940;55.060;73.168;2022-09-12T13:05:42;101371.25;;;10.98;59.69
59158;BME280;44940;55.060;73.168;2022-09-12T13:08:25;101372.78;;;10.87;61.75
59158;BME280;44940;55.060;73.168;2022-09-12T13:10:56;101370.19;;;10.73;61.75
59158;BME280;44940;55.060;73.168;2022-09-12T13:13:27;101379.50;;;10.69;63.29
59158;BME280;44940;55.060;73.168;2022-09-12T13:15:57;101379.84;;;10.58;64.28
59158;BME280;44940;55.060;73.168;2022-09-12T13:18:26;101380.03;;;10.45;65.68
59158;BME280;44940;55.060;73.168;2022-09-12T13:21:00;101372.22;;;10.29;67.46
59158;BME280;44940;55.060;73.168;2022-09-12T13:23:31;101387.38;;;10.23;67.64
59158;BME280;44940;55.060;73.168;2022-09-12T13:25:59;101384.22;;;10.16;68.38
59158;BME280;44940;55.060;73.168;2022-09-12T13:28:28;101390.59;;;10.08;68.89
59158;BME280;44940;55.060;73.168;2022-09-12T13:30:58;101389.91;;;10.02;69.43
59158;BME280;44940;55.060;73.168;2022-09-12T13:33:34;101402.13;;;9.93;70.80